createdAt,value
2017-01-04T00:00:48.055Z,22.2
2017-01-04T00:01:47.994Z,22.14
2017-01-04T00:02:47.932Z,22.2
2017-01-04T00:03:47.878Z,22.2
2017-01-04T00:04:47.834Z,22.2
2017-01-04T00:05:47.752Z,22.22
2017-01-04T00:06:47.682Z,22.18
2017-01-04T00:07:47.617Z,22.14
2017-01-04T00:08:47.556Z,22.2
2017-01-04T00:09:47.499Z,22.11
2017-01-04T00:10:47.434Z,22.2
2017-01-04T00:11:47.366Z,22.25
2017-01-04T00:12:47.322Z,22.14
2017-01-04T00:13:47.246Z,22.14
2017-01-04T00:14:47.202Z,22.18
2017-01-04T00:15:47.117Z,22.15
2017-01-04T00:16:47.054Z,22.17
2017-01-04T00:17:47.020Z,22.14
2017-01-04T00:18:46.930Z,22.22
2017-01-04T00:19:46.867Z,22.14
2017-01-04T00:20:46.807Z,22.17
2017-01-04T00:21:46.741Z,22.11
2017-01-04T00:22:46.689Z,22.11
2017-01-04T00:23:46.620Z,22.17
2017-01-04T00:24:46.559Z,22.13
2017-01-04T00:25:46.495Z,22.2
2017-01-04T00:26:46.429Z,22.15
2017-01-04T00:27:46.363Z,22.22
2017-01-04T00:28:46.303Z,22.17
2017-01-04T00:29:46.633Z,22.17
2017-01-04T00:30:46.180Z,22.17
2017-01-04T00:31:46.125Z,22.1
2017-01-04T00:32:46.059Z,22.13
2017-01-04T00:33:45.989Z,22.14
2017-01-04T00:34:45.926Z,22.17
2017-01-04T00:35:45.865Z,22.17
2017-01-04T00:36:45.805Z,22.18
2017-01-04T00:37:45.742Z,22.17
2017-01-04T00:38:45.680Z,22.2
2017-01-04T00:39:45.620Z,22.18
2017-01-04T00:40:45.554Z,22.14
2017-01-04T00:41:45.692Z,22.15
2017-01-04T00:42:45.429Z,22.15
2017-01-04T00:43:45.364Z,22.17
2017-01-04T00:44:45.303Z,22.13
2017-01-04T00:45:45.240Z,22.2
2017-01-04T00:46:45.179Z,22.14
2017-01-04T00:47:45.116Z,22.14
2017-01-04T00:48:45.053Z,22.15
2017-01-04T00:49:45.000Z,22.22
2017-01-04T00:50:44.962Z,22.13
2017-01-04T00:51:44.864Z,22.15
2017-01-04T00:52:44.803Z,22.15
2017-01-04T00:53:44.742Z,22.11
2017-01-04T00:54:44.676Z,22.14
2017-01-04T00:55:44.615Z,22.11
2017-01-04T00:56:44.551Z,22.15
2017-01-04T00:57:44.493Z,22.14
2017-01-04T00:58:44.426Z,22.17
2017-01-04T00:59:44.811Z,22.11
2017-01-04T01:01:14.596Z,22.15
2017-01-04T01:02:14.525Z,22.22
2017-01-04T01:03:14.463Z,22.15
2017-01-04T01:04:14.399Z,22.18
2017-01-04T01:05:14.339Z,22.17
2017-01-04T01:06:14.276Z,22.15
2017-01-04T01:07:14.215Z,22.14
2017-01-04T01:08:14.148Z,22.15
2017-01-04T01:09:14.087Z,22.22
2017-01-04T01:10:14.028Z,22.15
2017-01-04T01:11:13.987Z,22.17
2017-01-04T01:12:13.900Z,22.15
2017-01-04T01:13:13.836Z,22.15
2017-01-04T01:14:13.778Z,22.15
2017-01-04T01:15:13.711Z,22.15
2017-01-04T01:16:13.654Z,22.2
2017-01-04T01:17:13.589Z,22.17
2017-01-04T01:18:13.528Z,22.22
2017-01-04T01:19:13.461Z,22.2
2017-01-04T01:20:13.403Z,22.1
2017-01-04T01:21:13.339Z,22.14
2017-01-04T01:22:13.272Z,22.13
2017-01-04T01:23:13.211Z,22.22
2017-01-04T01:24:13.149Z,22.22
2017-01-04T01:25:13.088Z,22.15
2017-01-04T01:26:13.021Z,22.07
2017-01-04T01:27:12.961Z,22.14
2017-01-04T01:28:12.900Z,22.22
2017-01-04T01:29:12.834Z,22.17
2017-01-04T01:30:12.771Z,22.22
2017-01-04T01:31:12.710Z,22.15
2017-01-04T01:32:12.647Z,22.14
2017-01-04T01:33:12.589Z,22.14
2017-01-04T01:34:12.522Z,22.18
2017-01-04T01:35:12.465Z,22.14
2017-01-04T01:36:12.402Z,22.17
2017-01-04T01:37:12.331Z,22.15
2017-01-04T01:38:12.271Z,22.15
2017-01-04T01:39:12.212Z,22.18
2017-01-04T01:40:12.152Z,22.15
2017-01-04T01:41:12.081Z,22.15
2017-01-04T01:42:12.021Z,22.07
2017-01-04T01:43:11.959Z,22.22
2017-01-04T01:44:11.919Z,22.22
2017-01-04T01:45:11.836Z,22.15
2017-01-04T01:46:11.770Z,22.2
2017-01-04T01:47:11.710Z,22.17
2017-01-04T01:48:11.651Z,22.22
2017-01-04T01:49:11.586Z,22.13
2017-01-04T01:50:11.527Z,22.18
2017-01-04T01:51:11.462Z,22.22
2017-01-04T01:52:11.411Z,22.14
2017-01-04T01:53:11.334Z,22.18
2017-01-04T01:54:11.273Z,22.15
2017-01-04T01:55:11.210Z,22.06
2017-01-04T01:56:11.157Z,22.13
2017-01-04T01:57:11.081Z,22.18
2017-01-04T01:58:11.023Z,22.15
2017-01-04T01:59:10.955Z,22.14
2017-01-04T02:00:10.903Z,22.18
2017-01-04T02:01:10.830Z,22.15
2017-01-04T02:02:10.769Z,22.2
2017-01-04T02:03:10.708Z,22.17
2017-01-04T02:04:10.646Z,22.22
2017-01-04T02:05:10.582Z,22.14
2017-01-04T02:06:10.517Z,22.1
2017-01-04T02:07:10.460Z,22.14
2017-01-04T02:08:10.393Z,22.15
2017-01-04T02:09:10.334Z,22.15
2017-01-04T02:10:10.293Z,22.15
2017-01-04T02:11:10.206Z,22.2
2017-01-04T02:12:10.145Z,22.14
2017-01-04T02:13:10.083Z,22.17
2017-01-04T02:14:10.421Z,22.17
2017-01-04T02:15:09.958Z,22.14
2017-01-04T02:16:10.282Z,22.13
2017-01-04T02:17:09.833Z,22.15
2017-01-04T02:18:09.768Z,22.14
2017-01-04T02:19:09.709Z,22.08
2017-01-04T02:20:09.643Z,22.15
2017-01-04T02:21:09.581Z,22.22
2017-01-04T02:22:09.518Z,22.17
2017-01-04T02:23:09.452Z,22.18
2017-01-04T02:24:09.392Z,22.13
2017-01-04T02:25:09.326Z,22.13
2017-01-04T02:26:09.267Z,22.07
2017-01-04T02:27:09.204Z,22.15
2017-01-04T02:28:09.143Z,22.15
2017-01-04T02:29:09.077Z,22.07
2017-01-04T02:30:09.014Z,22.11
2017-01-04T02:31:08.954Z,22.14
2017-01-04T02:32:08.891Z,22.17
2017-01-04T02:33:08.824Z,22.13
2017-01-04T02:34:09.153Z,22.15
2017-01-04T02:35:08.701Z,22.18
2017-01-04T02:36:08.640Z,22.15
2017-01-04T02:37:08.584Z,22.18
2017-01-04T02:38:08.520Z,22.06
2017-01-04T02:39:08.452Z,22.13
2017-01-04T02:40:08.391Z,22.11
2017-01-04T02:41:08.328Z,22.08
2017-01-04T02:42:08.263Z,22.1
2017-01-04T02:43:08.205Z,22.13
2017-01-04T02:44:08.141Z,22.14
2017-01-04T02:45:08.077Z,22.13
2017-01-04T02:46:08.013Z,22.13
2017-01-04T02:47:07.989Z,22.13
2017-01-04T02:48:07.890Z,22.14
2017-01-04T02:49:07.854Z,22.11
2017-01-04T02:50:07.765Z,22.11
2017-01-04T02:51:07.721Z,22.14
2017-01-04T02:52:07.638Z,22.18
2017-01-04T02:53:07.578Z,22.08
2017-01-04T02:54:07.508Z,22.13
2017-01-04T02:55:07.448Z,22.11
2017-01-04T02:56:07.391Z,22.13
2017-01-04T02:57:07.321Z,22.18
2017-01-04T02:58:07.268Z,22.14
2017-01-04T02:59:07.198Z,22.1
2017-01-04T03:00:07.137Z,22.14
2017-01-04T03:01:07.075Z,22.02
2017-01-04T03:02:07.034Z,22.17
2017-01-04T03:03:06.950Z,22.1
2017-01-04T03:04:06.891Z,22.15
2017-01-04T03:05:06.824Z,22.15
2017-01-04T03:06:06.758Z,22.06
2017-01-04T03:07:06.695Z,22.11
2017-01-04T03:08:06.636Z,22.08
2017-01-04T03:09:06.574Z,22.15
2017-01-04T03:10:06.511Z,22.11
2017-01-04T03:11:06.488Z,22.07
2017-01-04T03:12:06.384Z,22.13
2017-01-04T03:13:06.324Z,22.13
2017-01-04T03:14:06.261Z,22.13
2017-01-04T03:15:06.202Z,22.07
2017-01-04T03:16:06.134Z,22.07
2017-01-04T03:17:06.074Z,22.11
2017-01-04T03:18:06.007Z,22.08
2017-01-04T03:19:05.948Z,22.1
2017-01-04T03:20:05.899Z,22.13
2017-01-04T03:21:05.823Z,22.15
2017-01-04T03:22:05.757Z,22.07
2017-01-04T03:23:05.695Z,22.1
2017-01-04T03:24:05.633Z,22.1
2017-01-04T03:25:05.596Z,22.06
2017-01-04T03:26:05.511Z,22.06
2017-01-04T03:27:05.447Z,22.14
2017-01-04T03:28:05.385Z,22.07
2017-01-04T03:29:05.321Z,22.11
2017-01-04T03:30:05.259Z,22.1
2017-01-04T03:31:05.194Z,22.13
2017-01-04T03:32:05.133Z,22.11
2017-01-04T03:33:05.072Z,22.14
2017-01-04T03:34:05.013Z,22.15
2017-01-04T03:35:04.945Z,22.06
2017-01-04T03:36:04.884Z,22.04
2017-01-04T03:37:04.820Z,22.11
2017-01-04T03:38:04.754Z,22.11
2017-01-04T03:39:04.692Z,22.14
2017-01-04T03:40:04.630Z,22.1
2017-01-04T03:41:04.577Z,22.13
2017-01-04T03:42:04.508Z,22.1
2017-01-04T03:43:04.444Z,22.08
2017-01-04T03:44:04.383Z,22.08
2017-01-04T03:45:04.320Z,22.14
2017-01-04T03:46:04.255Z,22.1
2017-01-04T03:47:04.195Z,22.06
2017-01-04T03:48:04.133Z,22.1
2017-01-04T03:49:04.062Z,22.11
2017-01-04T03:50:04.005Z,22.15
2017-01-04T03:51:03.944Z,22.06
2017-01-04T03:52:03.879Z,22.06
2017-01-04T03:53:03.817Z,22.08
2017-01-04T03:54:03.755Z,22.11
2017-01-04T03:55:03.690Z,22.08
2017-01-04T03:56:03.626Z,22.07
2017-01-04T03:57:03.569Z,22.15
2017-01-04T03:58:03.504Z,22.07
2017-01-04T03:59:03.443Z,22.11
2017-01-04T04:00:03.390Z,22.11
2017-01-04T04:01:03.322Z,22.2
2017-01-04T04:02:03.252Z,22.14
2017-01-04T04:03:03.198Z,22.08
2017-01-04T04:04:03.139Z,22.1
2017-01-04T04:05:03.068Z,22.04
2017-01-04T04:06:03.001Z,22.11
2017-01-04T04:07:02.938Z,22.08
2017-01-04T04:08:02.882Z,22.15
2017-01-04T04:09:02.812Z,22.11
2017-01-04T04:10:02.750Z,22.11
2017-01-04T04:11:02.690Z,22.1
2017-01-04T04:12:03.020Z,22.07
2017-01-04T04:13:02.582Z,22.08
2017-01-04T04:14:02.503Z,22.07
2017-01-04T04:15:02.437Z,22.1
2017-01-04T04:16:02.377Z,22.1
2017-01-04T04:17:02.318Z,22.08
2017-01-04T04:18:02.253Z,22.08
2017-01-04T04:19:02.188Z,22.1
2017-01-04T04:20:02.139Z,22.15
2017-01-04T04:21:02.063Z,22.11
2017-01-04T04:22:01.998Z,22.11
2017-01-04T04:23:01.938Z,22.08
2017-01-04T04:24:01.909Z,22.06
2017-01-04T04:25:01.811Z,22.08
2017-01-04T04:26:01.753Z,22.11
2017-01-04T04:27:01.688Z,22.14
2017-01-04T04:28:01.631Z,22.11
2017-01-04T04:29:01.560Z,22.13
2017-01-04T04:30:01.510Z,22.08
2017-01-04T04:31:01.462Z,22.04
2017-01-04T04:32:01.377Z,22.1
2017-01-04T04:33:01.313Z,22.07
2017-01-04T04:34:01.248Z,22.13
2017-01-04T04:35:01.194Z,22.1
2017-01-04T04:36:01.122Z,22.13
2017-01-04T04:37:01.062Z,22.11
2017-01-04T04:38:01.000Z,22.17
2017-01-04T04:39:00.936Z,22.17
2017-01-04T04:40:00.873Z,22.07
2017-01-04T04:41:00.836Z,22.14
2017-01-04T04:42:00.775Z,22.07
2017-01-04T04:43:00.697Z,22.07
2017-01-04T04:44:00.622Z,22.07
2017-01-04T04:45:00.569Z,22.1
2017-01-04T04:46:00.686Z,22.08
2017-01-04T04:47:00.436Z,22.14
2017-01-04T04:48:00.372Z,22.07
2017-01-04T04:49:00.312Z,22.02
2017-01-04T04:50:00.277Z,22.02
2017-01-04T04:51:00.215Z,22.08
2017-01-04T04:52:00.125Z,22.11
2017-01-04T04:53:00.060Z,22.06
2017-01-04T04:53:59.997Z,22.11
2017-01-04T04:54:59.932Z,22.14
2017-01-04T04:55:59.868Z,22.11
2017-01-04T04:56:59.817Z,22.08
2017-01-04T04:57:59.747Z,22.07
2017-01-04T04:58:59.706Z,22.07
2017-01-04T04:59:59.623Z,22.07
2017-01-04T05:00:59.558Z,22.13
2017-01-04T05:01:59.497Z,22.04
2017-01-04T05:02:59.440Z,22.13
2017-01-04T05:03:59.374Z,22.08
2017-01-04T05:04:59.311Z,22.07
2017-01-04T05:05:59.247Z,22.02
2017-01-04T05:06:59.574Z,22.06
2017-01-04T05:07:59.121Z,22.1
2017-01-04T05:08:59.059Z,22.13
2017-01-04T05:09:58.997Z,22.07
2017-01-04T05:10:58.932Z,22.07
2017-01-04T05:11:58.868Z,22.06
2017-01-04T05:12:58.806Z,22.06
2017-01-04T05:13:58.743Z,22.13
2017-01-04T05:14:58.684Z,22.07
2017-01-04T05:15:58.616Z,22.1
2017-01-04T05:16:58.553Z,22.02
2017-01-04T05:17:58.493Z,22.06
2017-01-04T05:18:58.436Z,22.06
2017-01-04T05:19:58.367Z,22.1
2017-01-04T05:20:58.304Z,22.14
2017-01-04T05:21:58.239Z,22.11
2017-01-04T05:22:58.180Z,22.02
2017-01-04T05:23:58.115Z,22.1
2017-01-04T05:24:58.053Z,22.07
2017-01-04T05:25:57.995Z,22.11
2017-01-04T05:26:57.933Z,22.1
2017-01-04T05:27:57.865Z,22.14
2017-01-04T05:28:57.835Z,22.04
2017-01-04T05:29:57.740Z,22.1
2017-01-04T05:30:57.679Z,22.15
2017-01-04T05:31:57.611Z,22.08
2017-01-04T05:32:57.550Z,22.11
2017-01-04T05:33:57.493Z,22.07
2017-01-04T05:34:57.821Z,22.15
2017-01-04T05:35:57.366Z,22.11
2017-01-04T05:36:57.300Z,22.11
2017-01-04T05:37:57.236Z,22.1
2017-01-04T05:38:57.563Z,22.08
2017-01-04T05:39:57.115Z,22.14
2017-01-04T05:40:57.048Z,22.08
2017-01-04T05:41:56.989Z,22.11
2017-01-04T05:42:56.924Z,22.08
2017-01-04T05:43:56.864Z,22.14
2017-01-04T05:44:56.806Z,22.18
2017-01-04T05:45:56.736Z,22.08
2017-01-04T05:46:56.673Z,22.1
2017-01-04T05:47:56.611Z,22.08
2017-01-04T05:48:56.546Z,22
2017-01-04T05:49:56.488Z,22.1
2017-01-04T05:50:56.421Z,22.07
2017-01-04T05:51:56.562Z,22
2017-01-04T05:52:56.295Z,22.06
2017-01-04T05:53:56.234Z,22.11
2017-01-04T05:54:56.171Z,22.15
2017-01-04T05:55:56.136Z,22.11
2017-01-04T05:56:56.044Z,22.1
2017-01-04T05:57:55.982Z,22.08
2017-01-04T05:58:55.921Z,22.11
2017-01-04T05:59:55.855Z,22.06
2017-01-04T06:00:55.790Z,22.08
2017-01-04T06:01:55.733Z,22.14
2017-01-04T06:02:55.666Z,22.07
2017-01-04T06:03:55.606Z,22.08
2017-01-04T06:04:55.543Z,22.06
2017-01-04T06:05:55.487Z,22.14
2017-01-04T06:06:55.420Z,22.07
2017-01-04T06:07:55.352Z,22.06
2017-01-04T06:08:55.291Z,22.13
2017-01-04T06:09:55.231Z,22.1
2017-01-04T06:10:55.165Z,22.04
2017-01-04T06:11:55.103Z,22.07
2017-01-04T06:12:55.040Z,22.11
2017-01-04T06:13:54.979Z,22.04
2017-01-04T06:14:54.913Z,22.08
2017-01-04T06:15:54.853Z,22.04
2017-01-04T06:16:54.815Z,22
2017-01-04T06:17:54.730Z,22.08
2017-01-04T06:18:54.662Z,22.13
2017-01-04T06:19:54.601Z,22.06
2017-01-04T06:20:54.535Z,22.11
2017-01-04T06:21:54.474Z,22.07
2017-01-04T06:22:54.411Z,22.02
2017-01-04T06:23:54.351Z,22.06
2017-01-04T06:24:54.284Z,22.08
2017-01-04T06:25:54.225Z,22.15
2017-01-04T06:26:54.161Z,22.06
2017-01-04T06:27:54.100Z,22.08
2017-01-04T06:28:54.033Z,22.06
2017-01-04T06:29:53.971Z,22.08
2017-01-04T06:30:53.908Z,22.11
2017-01-04T06:31:54.049Z,22.1
2017-01-04T06:32:53.782Z,22.11
2017-01-04T06:33:53.720Z,22.07
2017-01-04T06:34:53.659Z,22.07
2017-01-04T06:35:53.629Z,22.08
2017-01-04T06:36:53.533Z,22.14
2017-01-04T06:37:53.468Z,22.08
2017-01-04T06:38:53.405Z,22.1
2017-01-04T06:39:53.341Z,22.13
2017-01-04T06:40:53.281Z,22.1
2017-01-04T06:41:53.218Z,22.11
2017-01-04T06:42:53.158Z,22.14
2017-01-04T06:43:53.090Z,22.1
2017-01-04T06:44:53.027Z,22.11
2017-01-04T06:45:52.967Z,22.1
2017-01-04T06:46:52.901Z,22.06
2017-01-04T06:47:52.840Z,22.08
2017-01-04T06:48:52.779Z,22.04
2017-01-04T06:49:52.718Z,22.1
2017-01-04T06:50:52.655Z,22.07
2017-01-04T06:51:52.588Z,22.08
2017-01-04T06:52:52.527Z,22.1
2017-01-04T06:53:52.468Z,22.08
2017-01-04T06:54:52.398Z,22.08
2017-01-04T06:55:52.339Z,21.99
2017-01-04T06:56:52.281Z,22.08
2017-01-04T06:57:52.215Z,22.1
2017-01-04T06:58:52.156Z,22.06
2017-01-04T06:59:52.089Z,21.99
2017-01-04T07:00:52.041Z,22.08
2017-01-04T07:01:51.959Z,22.13
2017-01-04T07:02:51.899Z,22.1
2017-01-04T07:03:51.835Z,22.04
2017-01-04T07:04:51.773Z,22.02
2017-01-04T07:05:51.710Z,22.15
2017-01-04T07:06:51.647Z,22.08
2017-01-04T07:07:51.593Z,22.1
2017-01-04T07:08:51.525Z,22.06
2017-01-04T07:09:51.465Z,21.99
2017-01-04T07:10:51.396Z,22.07
2017-01-04T07:11:51.333Z,22.1
2017-01-04T07:12:51.268Z,22.08
2017-01-04T07:13:51.209Z,22.1
2017-01-04T07:14:51.144Z,22.08
2017-01-04T07:15:51.082Z,22.1
2017-01-04T07:16:51.019Z,22.1
2017-01-04T07:17:50.975Z,22.11
2017-01-04T07:18:50.891Z,22.1
2017-01-04T07:19:50.830Z,22.06
2017-01-04T07:20:50.769Z,22.06
2017-01-04T07:21:50.707Z,22.13
2017-01-04T07:22:50.644Z,22.13
2017-01-04T07:23:50.577Z,22.1
2017-01-04T07:24:50.514Z,22.11
2017-01-04T07:25:50.453Z,22.1
2017-01-04T07:26:50.388Z,22.1
2017-01-04T07:27:50.327Z,22.15
2017-01-04T07:28:50.260Z,22.11
2017-01-04T07:29:50.198Z,22.07
2017-01-04T07:30:50.141Z,22.06
2017-01-04T07:31:50.072Z,22.08
2017-01-04T07:32:50.013Z,22.06
2017-01-04T07:33:49.947Z,22.02
2017-01-04T07:34:49.884Z,22.06
2017-01-04T07:35:49.823Z,22.14
2017-01-04T07:36:49.766Z,22.1
2017-01-04T07:37:49.696Z,22
2017-01-04T07:38:49.639Z,21.99
2017-01-04T07:39:49.573Z,22.06
2017-01-04T07:40:49.507Z,22.06
2017-01-04T07:41:49.467Z,21.98
2017-01-04T07:42:49.381Z,22.04
2017-01-04T07:43:49.319Z,21.99
2017-01-04T07:44:49.256Z,21.99
2017-01-04T07:45:49.187Z,22.07
2017-01-04T07:46:49.131Z,22.04
2017-01-04T07:47:49.079Z,22
2017-01-04T07:48:49.011Z,21.99
2017-01-04T07:49:49.330Z,21.89
2017-01-04T07:50:48.875Z,21.99
2017-01-04T07:51:48.813Z,22.02
2017-01-04T07:52:48.755Z,22.02
2017-01-04T07:53:48.689Z,22.11
2017-01-04T07:54:48.624Z,22.08
2017-01-04T07:55:48.563Z,22.1
2017-01-04T07:56:48.496Z,22
2017-01-04T07:57:48.434Z,22.04
2017-01-04T07:58:48.372Z,22.04
2017-01-04T07:59:48.309Z,22.07
2017-01-04T08:00:48.253Z,22
2017-01-04T08:01:48.182Z,22.02
2017-01-04T08:02:48.122Z,22.02
2017-01-04T08:03:48.056Z,22.02
2017-01-04T08:04:47.997Z,22.07
2017-01-04T08:05:47.933Z,22.08
2017-01-04T08:06:47.875Z,21.99
2017-01-04T08:07:47.811Z,22.02
2017-01-04T08:08:47.744Z,22.06
2017-01-04T08:09:47.680Z,22.02
2017-01-04T08:10:47.617Z,22.06
2017-01-04T08:11:47.573Z,22.04
2017-01-04T08:12:47.500Z,22.04
2017-01-04T08:13:47.427Z,21.99
2017-01-04T08:14:47.369Z,22.02
2017-01-04T08:15:47.306Z,21.99
2017-01-04T08:16:47.238Z,22.11
2017-01-04T08:17:47.177Z,22.02
2017-01-04T08:18:47.114Z,22.04
2017-01-04T08:19:47.052Z,22.04
2017-01-04T08:20:46.991Z,22.06
2017-01-04T08:21:46.925Z,22
2017-01-04T08:22:46.864Z,22.06
2017-01-04T08:23:46.812Z,22.13
2017-01-04T08:24:46.741Z,22.08
2017-01-04T08:25:46.680Z,22.1
2017-01-04T08:26:46.612Z,22.07
2017-01-04T08:27:46.556Z,21.98
2017-01-04T08:28:46.488Z,22.1
2017-01-04T08:29:46.424Z,21.98
2017-01-04T08:31:01.256Z,22.06
2017-01-04T08:31:46.304Z,21.98
2017-01-04T08:32:46.236Z,21.99
2017-01-04T08:33:46.173Z,21.99
2017-01-04T08:34:46.501Z,22.02
2017-01-04T08:35:46.048Z,22.02
2017-01-04T08:36:45.984Z,22.04
2017-01-04T08:37:45.921Z,21.98
2017-01-04T08:38:45.863Z,21.93
2017-01-04T08:39:45.794Z,22.07
2017-01-04T08:40:45.737Z,22.07
2017-01-04T08:41:45.674Z,22.02
2017-01-04T08:42:45.607Z,22.04
2017-01-04T08:43:45.545Z,22.06
2017-01-04T08:44:45.510Z,21.95
2017-01-04T08:45:45.420Z,22.07
2017-01-04T08:46:45.357Z,22.02
2017-01-04T08:47:45.293Z,22.08
2017-01-04T08:48:45.336Z,21.99
2017-01-04T08:49:45.171Z,22.02
2017-01-04T08:50:45.139Z,22.08
2017-01-04T08:51:45.082Z,22.07
2017-01-04T08:52:44.981Z,22.07
2017-01-04T08:53:44.921Z,22.04
2017-01-04T08:54:44.861Z,21.91
2017-01-04T08:55:44.797Z,22.08
2017-01-04T08:56:44.734Z,22.02
2017-01-04T08:57:44.671Z,22
2017-01-04T08:58:44.609Z,22.07
2017-01-04T08:59:44.546Z,22.08
2017-01-04T09:00:44.484Z,21.96
2017-01-04T09:01:44.417Z,21.93
2017-01-04T09:02:44.354Z,22
2017-01-04T09:03:44.298Z,21.99
2017-01-04T09:04:44.237Z,22.04
2017-01-04T09:05:44.171Z,21.96
2017-01-04T09:06:44.105Z,22
2017-01-04T09:07:44.044Z,21.93
2017-01-04T09:08:43.982Z,22.04
2017-01-04T09:09:43.921Z,21.99
2017-01-04T09:10:43.855Z,22
2017-01-04T09:11:43.792Z,21.96
2017-01-04T09:12:43.730Z,22.04
2017-01-04T09:13:43.667Z,22.07
2017-01-04T09:14:43.602Z,22.06
2017-01-04T09:15:43.696Z,22.04
2017-01-04T09:16:43.485Z,21.99
2017-01-04T09:17:43.428Z,21.98
2017-01-04T09:18:43.356Z,21.99
2017-01-04T09:19:43.291Z,22.02
2017-01-04T09:20:43.225Z,22.08
2017-01-04T09:21:43.171Z,22
2017-01-04T09:22:43.102Z,22.04
2017-01-04T09:23:43.038Z,21.96
2017-01-04T09:24:42.982Z,22.06
2017-01-04T09:25:42.912Z,22
2017-01-04T09:26:42.853Z,22.02
2017-01-04T09:27:42.786Z,22
2017-01-04T09:28:42.726Z,22.1
2017-01-04T09:29:42.665Z,22.02
2017-01-04T09:30:42.965Z,22
2017-01-04T09:31:42.538Z,22.04
2017-01-04T09:32:42.476Z,22.02
2017-01-04T09:33:42.414Z,22.07
2017-01-04T09:34:42.351Z,21.99
2017-01-04T09:35:42.288Z,21.98
2017-01-04T09:36:42.225Z,22.04
2017-01-04T09:37:42.169Z,22
2017-01-04T09:38:42.110Z,22.04
2017-01-04T09:39:42.035Z,22.02
2017-01-04T09:40:41.985Z,22.02
2017-01-04T09:41:41.916Z,22.07
2017-01-04T09:42:41.852Z,22.04
2017-01-04T09:43:41.946Z,21.96
2017-01-04T09:44:41.729Z,22.04
2017-01-04T09:45:41.662Z,22
2017-01-04T09:46:41.612Z,22.07
2017-01-04T09:47:41.536Z,22.06
2017-01-04T09:48:41.474Z,22.13
2017-01-04T09:49:41.410Z,22.07
2017-01-04T09:50:41.346Z,22.08
2017-01-04T09:51:41.288Z,22.08
2017-01-04T09:52:41.230Z,22.1
2017-01-04T09:53:41.158Z,22.1
2017-01-04T09:54:41.096Z,22.11
2017-01-04T09:55:41.047Z,22.1
2017-01-04T09:56:40.971Z,22.14
2017-01-04T09:57:40.907Z,22.1
2017-01-04T09:58:40.847Z,22.14
2017-01-04T09:59:40.791Z,22.08
2017-01-04T10:00:40.719Z,22.08
2017-01-04T10:01:40.673Z,22.13
2017-01-04T10:02:40.596Z,22.04
2017-01-04T10:03:40.550Z,22.04
2017-01-04T10:04:40.469Z,22.14
2017-01-04T10:05:40.407Z,22.1
2017-01-04T10:06:40.349Z,22.08
2017-01-04T10:07:40.286Z,22.1
2017-01-04T10:08:40.224Z,22.02
2017-01-04T10:09:40.251Z,22.14
2017-01-04T10:10:40.152Z,22.15
2017-01-04T10:11:40.038Z,22.14
2017-01-04T10:12:39.977Z,22.22
2017-01-04T10:13:40.305Z,22.17
2017-01-04T10:14:39.847Z,22.22
2017-01-04T10:15:39.787Z,22.15
2017-01-04T10:16:39.719Z,22.14
2017-01-04T10:17:39.664Z,22.18
2017-01-04T10:18:39.596Z,22.18
2017-01-04T10:19:39.536Z,22.17
2017-01-04T10:20:39.471Z,22.15
2017-01-04T10:21:39.407Z,22.22
2017-01-04T10:22:39.347Z,22.18
2017-01-04T10:23:39.284Z,22.15
2017-01-04T10:24:39.223Z,22.15
2017-01-04T10:25:39.160Z,22.26
2017-01-04T10:26:39.099Z,22.17
2017-01-04T10:27:39.175Z,22.18
2017-01-04T10:28:39.028Z,22.18
2017-01-04T10:29:39.067Z,22.28
2017-01-04T10:30:38.918Z,22.29
2017-01-04T10:31:38.877Z,22.33
2017-01-04T10:32:38.852Z,22.36
2017-01-04T10:33:38.786Z,22.26
2017-01-04T10:34:38.806Z,22.28
2017-01-04T10:35:38.665Z,22.29
2017-01-04T10:36:38.649Z,22.29
2017-01-04T10:37:38.412Z,22.25
2017-01-04T10:38:38.468Z,22.28
2017-01-04T10:39:38.381Z,22.25
2017-01-04T10:40:38.404Z,22.28
2017-01-04T10:41:38.161Z,22.22
2017-01-04T10:42:38.143Z,22.3
2017-01-04T10:43:38.111Z,22.25
2017-01-04T10:44:37.979Z,22.25
2017-01-04T10:45:37.918Z,22.26
2017-01-04T10:46:37.857Z,22.32
2017-01-04T10:47:37.794Z,22.35
2017-01-04T10:48:37.732Z,22.41
2017-01-04T10:49:37.670Z,22.36
2017-01-04T10:50:37.606Z,22.3
2017-01-04T10:51:37.550Z,22.39
2017-01-04T10:52:37.477Z,22.39
2017-01-04T10:53:37.418Z,22.3
2017-01-04T10:54:37.356Z,22.35
2017-01-04T10:55:37.291Z,22.41
2017-01-04T10:56:37.230Z,22.33
2017-01-04T10:57:37.274Z,22.41
2017-01-04T10:58:37.111Z,22.38
2017-01-04T10:59:37.047Z,22.32
2017-01-04T11:00:36.987Z,22.38
2017-01-04T11:01:36.917Z,22.43
2017-01-04T11:02:36.862Z,22.38
2017-01-04T11:03:36.796Z,22.36
2017-01-04T11:04:36.737Z,22.39
2017-01-04T11:05:36.671Z,22.33
2017-01-04T11:06:36.607Z,22.39
2017-01-04T11:07:36.546Z,22.45
2017-01-04T11:08:36.483Z,22.35
2017-01-04T11:09:36.421Z,22.39
2017-01-04T11:10:36.361Z,22.36
2017-01-04T11:11:36.475Z,22.17
2017-01-04T11:12:36.321Z,21.91
2017-01-04T11:13:36.288Z,21.76
2017-01-04T11:14:36.209Z,21.79
2017-01-04T11:15:36.102Z,21.92
2017-01-04T11:16:36.015Z,21.96
2017-01-04T11:17:35.983Z,21.98
2017-01-04T11:18:35.989Z,21.95
2017-01-04T11:19:35.855Z,21.79
2017-01-04T11:20:35.821Z,21.48
2017-01-04T11:21:35.730Z,21.22
2017-01-04T11:22:35.746Z,20.99
2017-01-04T11:23:35.564Z,20.84
2017-01-04T11:24:35.504Z,20.82
2017-01-04T11:25:35.537Z,20.85
2017-01-04T11:26:35.522Z,21.05
2017-01-04T11:27:35.379Z,21.09
2017-01-04T11:28:35.685Z,21.2
2017-01-04T11:29:35.276Z,21.21
2017-01-04T11:30:35.378Z,21.29
2017-01-04T11:31:35.152Z,21.27
2017-01-04T11:32:34.997Z,21.32
2017-01-04T11:33:34.950Z,21.35
2017-01-04T11:34:34.898Z,21.39
2017-01-04T11:35:34.830Z,21.45
2017-01-04T11:36:35.145Z,21.37
2017-01-04T11:37:34.717Z,21.4
2017-01-04T11:38:34.712Z,21.43
2017-01-04T11:39:34.554Z,21.48
2017-01-04T11:40:34.453Z,21.42
2017-01-04T11:41:34.671Z,21.43
2017-01-04T11:42:34.372Z,21.46
2017-01-04T11:43:34.283Z,21.43
2017-01-04T11:44:34.247Z,21.42
2017-01-04T11:45:34.180Z,21.43
2017-01-04T11:46:34.112Z,21.45
2017-01-04T11:47:34.047Z,21.4
2017-01-04T11:48:34.018Z,21.39
2017-01-04T11:49:34.166Z,21.48
2017-01-04T11:50:33.814Z,21.48
2017-01-04T11:51:33.811Z,21.4
2017-01-04T11:52:33.735Z,21.45
2017-01-04T11:53:33.641Z,21.51
2017-01-04T11:54:33.557Z,21.37
2017-01-04T11:55:33.497Z,21.43
2017-01-04T11:56:33.422Z,21.4
2017-01-04T11:57:33.357Z,21.35
2017-01-04T11:58:33.306Z,21.42
2017-01-04T11:59:33.254Z,21.42
2017-01-04T12:00:33.176Z,21.42
2017-01-04T12:01:33.107Z,21.45
2017-01-04T12:02:33.038Z,21.45
2017-01-04T12:03:32.995Z,21.48
2017-01-04T12:04:32.917Z,21.48
2017-01-04T12:05:33.165Z,21.43
2017-01-04T12:06:32.801Z,21.5
2017-01-04T12:07:32.731Z,21.45
2017-01-04T12:08:32.678Z,21.46
2017-01-04T12:09:32.616Z,21.46
2017-01-04T12:10:32.550Z,21.46
2017-01-04T12:11:32.486Z,21.43
2017-01-04T12:12:32.620Z,21.46
2017-01-04T12:13:32.357Z,21.43
2017-01-04T12:14:32.287Z,21.45
2017-01-04T12:15:32.220Z,21.5
2017-01-04T12:16:32.161Z,21.48
2017-01-04T12:17:32.093Z,21.46
2017-01-04T12:18:32.040Z,21.43
2017-01-04T12:19:31.970Z,21.43
2017-01-04T12:20:31.907Z,21.51
2017-01-04T12:21:31.849Z,21.51
2017-01-04T12:22:31.782Z,21.46
2017-01-04T12:23:31.722Z,21.4
2017-01-04T12:24:31.693Z,21.52
2017-01-04T12:25:31.599Z,21.52
2017-01-04T12:26:31.529Z,21.43
2017-01-04T12:27:31.469Z,21.51
2017-01-04T12:28:31.408Z,21.52
2017-01-04T12:29:31.341Z,21.51
2017-01-04T12:30:31.287Z,21.57
2017-01-04T12:31:31.219Z,21.48
2017-01-04T12:32:31.155Z,21.46
2017-01-04T12:33:31.093Z,21.46
2017-01-04T12:34:31.030Z,21.48
2017-01-04T12:35:30.967Z,21.5
2017-01-04T12:36:30.909Z,21.61
2017-01-04T12:37:30.839Z,21.57
2017-01-04T12:38:30.779Z,21.5
2017-01-04T12:39:30.721Z,21.52
2017-01-04T12:40:30.656Z,21.5
2017-01-04T12:41:30.590Z,21.55
2017-01-04T12:42:30.531Z,21.62
2017-01-04T12:43:30.464Z,21.61
2017-01-04T12:44:30.403Z,21.62
2017-01-04T12:45:30.345Z,21.55
2017-01-04T12:46:30.282Z,21.55
2017-01-04T12:47:30.214Z,21.6
2017-01-04T12:48:30.152Z,21.57
2017-01-04T12:49:30.090Z,21.66
2017-01-04T12:50:30.024Z,21.6
2017-01-04T12:51:29.967Z,21.62
2017-01-04T12:52:29.904Z,21.61
2017-01-04T12:53:29.836Z,21.64
2017-01-04T12:54:30.165Z,21.58
2017-01-04T12:55:29.716Z,21.6
2017-01-04T12:56:29.649Z,21.62
2017-01-04T12:57:29.587Z,21.64